Sv.ap.joan — LZG2225 — position and weather

sailwx.info

Track history (hours):
 
Tides and Currents Weather Stations Pressure Air Temp Water Temp Dewpoint Dewpoint Depression Visibility Wind Speed Wind Dir Waves Ship Positions

Sv.ap.joan

Last reported at 2018-Feb-14 14:49 UTC. Time now 2018-Feb-20 12:10 UTC.
Position N 44°30' E 022°12'.

Length 80 m; draft 2.4 m.

Type: Cargo ship. MMSI: 207072225.

Date/timePositionNaut miles runAvg speedWind from/ knotsBaromVisibWave heightAir tempDewpointWater temp
2018-Feb-14 14:49N 44°30' E 022°12'2 8.2
2018-Feb-14 14:30N 44°28' E 022°09'4 7.8
2018-Feb-14 14:00N 44°31' E 022°05'4 8.0
2018-Feb-14 13:30N 44°34' E 022°02'15 7.4
2018-Feb-14 11:30N 44°40' E 021°42'4 7.8
2018-Feb-14 10:58N 44°43' E 021°38'3 7.0
2018-Feb-14 10:31N 44°45' E 021°35'3 6.7
2018-Feb-14 10:00N 44°46' E 021°31'0 0.0
2018-Feb-14 06:31N 44°46' E 021°31'0 0.2
2018-Feb-14 06:26N 44°46' E 021°31'2 5.2
2018-Feb-14 06:00N 44°47' E 021°28'11 0.8
2018-Feb-13 16:35N 44°47' E 021°13'1 8.3
2018-Feb-13 16:30N 44°46' E 021°12'4 8.0
2018-Feb-13 16:00N 44°44' E 021°08'4 8.0
2018-Feb-13 15:30N 44°43' E 021°02'3 6.8
2018-Feb-13 15:00N 44°42' E 020°58'3 5.7
2018-Feb-13 14:30N 44°40' E 020°55'0 0.0
2018-Feb-13 14:00N 44°40' E 020°55'0 0.0
2018-Feb-13 13:27N 44°40' E 020°55'0 0.0
2018-Feb-13 13:00N 44°40' E 020°55'0 0.0
2018-Feb-13 12:27N 44°40' E 020°55'0 0.0
2018-Feb-13 12:00N 44°40' E 020°55'0 0.0
2018-Feb-13 11:27N 44°40' E 020°55'0 0.0
2018-Feb-13 00:33N 44°40' E 020°55'0 0.1
2018-Feb-13 00:30N 44°40' E 020°55'0 0.0
2018-Feb-13 00:00N 44°40' E 020°55'0 0.0
2018-Feb-12 23:30N 44°40' E 020°55'0 0.0
2018-Feb-12 22:39N 44°40' E 020°55'0 0.0
2018-Feb-12 22:27N 44°40' E 020°55'0 0.0
2018-Feb-12 21:57N 44°40' E 020°55'0 0.0
2018-Feb-12 21:30N 44°40' E 020°55'0 0.0
2018-Feb-12 21:00N 44°40' E 020°55'0 0.0
2018-Feb-12 20:30N 44°40' E 020°55'0 0.0
2018-Feb-12 20:00N 44°40' E 020°55'0 0.0
2018-Feb-12 19:30N 44°40' E 020°55'0 0.0
2018-Feb-12 19:00N 44°40' E 020°55'0 0.0
2018-Feb-12 18:30N 44°40' E 020°55'0 0.0
2018-Feb-12 18:00N 44°40' E 020°55'0 0.0
2018-Feb-12 17:30N 44°40' E 020°55'0 0.0
2018-Feb-12 17:00N 44°40' E 020°55'0 0.0
2018-Feb-12 16:30N 44°40' E 020°55'0 0.0
2018-Feb-12 16:00N 44°40' E 020°55'1 1.4
2018-Feb-12 15:30N 44°40' E 020°54'0 0.6
2018-Feb-12 14:57N 44°40' E 020°54'0 0.0
2018-Feb-12 14:27N 44°40' E 020°54'0 0.0
2018-Feb-12 13:57N 44°40' E 020°54'0 0.0
2018-Feb-12 13:30N 44°40' E 020°54'0 0.0
2018-Feb-12 13:00N 44°40' E 020°54'0 0.0
2018-Feb-12 12:30N 44°40' E 020°54'0 0.0
2018-Feb-12 12:00N 44°40' E 020°54'0 0.0
2018-Feb-12 11:30N 44°40' E 020°54'0 0.0
2018-Feb-12 11:00N 44°40' E 020°54'0 0.0
2018-Feb-12 10:30N 44°40' E 020°54'0 0.0
2018-Feb-12 06:54N 44°40' E 020°54'1 0.2
2018-Feb-12 01:08N 44°40' E 020°55'0 0.0
2018-Feb-12 00:59N 44°40' E 020°55'0 0.0
2018-Feb-12 00:29N 44°40' E 020°55'0 0.0
2018-Feb-11 23:59N 44°40' E 020°55'0 0.0
2018-Feb-11 23:29N 44°40' E 020°55'0 0.0
2018-Feb-11 22:56N 44°40' E 020°55'0 0.0
2018-Feb-11 22:26N 44°40' E 020°55'0 0.0
2018-Feb-11 21:59N 44°40' E 020°55'0 0.0
2018-Feb-11 21:29N 44°40' E 020°55'0 0.0
2018-Feb-11 20:59N 44°40' E 020°55'0 0.0
2018-Feb-11 20:29N 44°40' E 020°55'0 0.0
2018-Feb-11 19:59N 44°40' E 020°55'0 0.0
2018-Feb-11 19:29N 44°40' E 020°55'0 0.0
2018-Feb-11 18:59N 44°40' E 020°55'0 0.0
2018-Feb-11 18:29N 44°40' E 020°55'0 0.0
2018-Feb-11 17:59N 44°40' E 020°55'0 0.0
2018-Feb-11 17:26N 44°40' E 020°55'0 0.0
2018-Feb-11 16:59N 44°40' E 020°55'0 0.0
2018-Feb-11 16:29N 44°40' E 020°55'0 0.0
2018-Feb-11 15:56N 44°40' E 020°55'0 0.0
2018-Feb-11 15:29N 44°40' E 020°55'0 0.0
2018-Feb-11 14:59N 44°40' E 020°55'0 0.0
2018-Feb-11 00:05N 44°40' E 020°55'0 0.0
2018-Feb-10 23:56N 44°40' E 020°55'0 0.0
2018-Feb-10 23:26N 44°40' E 020°55'0 0.0
2018-Feb-10 22:59N 44°40' E 020°55'0 0.0
2018-Feb-10 22:29N 44°40' E 020°55'0 0.0
2018-Feb-10 21:59N 44°40' E 020°55'0 0.0
2018-Feb-10 21:26N 44°40' E 020°55'0 0.0
2018-Feb-10 20:59N 44°40' E 020°55'0 0.0
2018-Feb-10 20:29N 44°40' E 020°55'0 0.0
2018-Feb-10 19:59N 44°40' E 020°55'0 0.0
2018-Feb-10 19:29N 44°40' E 020°55'0 0.0
2018-Feb-10 18:59N 44°40' E 020°55'0 0.0
2018-Feb-10 18:29N 44°40' E 020°55'0 0.0
2018-Feb-10 17:59N 44°40' E 020°55'0 0.0
2018-Feb-10 17:29N 44°40' E 020°55'0 0.0
2018-Feb-10 16:59N 44°40' E 020°55'0 0.0
2018-Feb-10 16:29N 44°40' E 020°55'0 0.0
2018-Feb-10 15:59N 44°40' E 020°55'0 0.0
2018-Feb-10 15:29N 44°40' E 020°55'0 0.0
2018-Feb-10 14:59N 44°40' E 020°55'0 0.3
2018-Feb-10 14:30N 44°40' E 020°55'3 6.1
2018-Feb-10 14:00N 44°40' E 020°51'4 7.9
2018-Feb-10 13:30N 44°40' E 020°45'4 7.6
2018-Feb-10 13:00N 44°43' E 020°42'4 7.6
2018-Feb-10 12:30N 44°45' E 020°38'4 7.3
2018-Feb-10 12:00N 44°49' E 020°39'3 6.4
2018-Feb-10 11:30N 44°51' E 020°36'4 7.4
2018-Feb-10 11:00N 44°50' E 020°31'4 7.4
2018-Feb-10 10:30N 44°51' E 020°26'4 7.4
2018-Feb-10 10:00N 44°53' E 020°21'4 7.4
2018-Feb-10 09:30N 44°56' E 020°19'4 7.1
2018-Feb-10 09:00N 44°59' E 020°18'4 7.1
2018-Feb-10 08:30N 45°02' E 020°22'4 7.6
2018-Feb-10 07:58N 45°05' E 020°19'4 7.7
2018-Feb-10 07:29N 45°08' E 020°16'4 7.3
2018-Feb-10 06:59N 45°11' E 020°12'3 7.0
2018-Feb-10 06:30N 45°10' E 020°07'4 7.5
2018-Feb-10 06:00N 45°10' E 020°02'  
2018-Feb-06 15:57N 45°14' E 019°46'4 7.6
2018-Feb-06 15:24N 45°13' E 019°40'9 6.4
2018-Feb-06 13:58N 45°14' E 019°27'4 7.9
2018-Feb-06 13:30N 45°14' E 019°22'5 7.6
2018-Feb-06 12:54N 45°15' E 019°16'3 8.0
2018-Feb-06 12:30N 45°16' E 019°12'4 7.7
2018-Feb-06 11:59N 45°18' E 019°07'3 6.7
2018-Feb-06 11:30N 45°21' E 019°05'4 7.3
2018-Feb-06 11:00N 45°22' E 018°60'2 4.5
2018-Feb-06 10:29N 45°24' E 019°01'2 4.9
2018-Feb-06 10:00N 45°26' E 018°60'3 7.0
2018-Feb-06 09:30N 45°30' E 019°00'3 6.9
2018-Feb-06 09:00N 45°29' E 019°05'3 5.5
2018-Feb-06 08:30N 45°32' E 019°04'3 5.4
2018-Feb-06 08:00N 45°33' E 019°00'3 6.5
2018-Feb-06 07:30N 45°33' E 018°56'3 5.5
2018-Feb-06 07:00N 45°35' E 018°54'4 7.3
2018-Feb-06 06:30N 45°39' E 018°57'3 5.1
2018-Feb-06 06:00N 45°41' E 018°56'4 7.3
2018-Feb-06 05:30N 45°45' E 018°54'3 6.9
2018-Feb-06 05:00N 45°48' E 018°51'3 3.2
2018-Feb-06 04:14N 45°50' E 018°51'0 0.0
2018-Feb-06 02:56N 45°50' E 018°51'0 0.0
2018-Feb-06 02:26N 45°50' E 018°51'0 0.0
2018-Feb-06 01:44N 45°50' E 018°51'0 0.0
2018-Feb-06 01:26N 45°50' E 018°51'0 0.0
2018-Feb-06 00:56N 45°50' E 018°51'0 0.0
2018-Feb-05 23:32N 45°50' E 018°51'0 0.0
2018-Feb-05 23:26N 45°50' E 018°51'0 0.0
2018-Feb-05 22:38N 45°50' E 018°51'0 0.0
2018-Feb-05 22:26N 45°50' E 018°51'0 0.0
2018-Feb-05 21:56N 45°50' E 018°51'0 0.0
2018-Feb-05 21:26N 45°50' E 018°51'0 0.0
2018-Feb-05 20:02N 45°50' E 018°51'0 0.0
2018-Feb-05 19:44N 45°50' E 018°51'0 0.0
2018-Feb-05 19:26N 45°50' E 018°51'0 0.0
2018-Feb-05 18:38N 45°50' E 018°51'0 0.0
2018-Feb-05 18:20N 45°50' E 018°51'0 0.0
2018-Feb-05 17:56N 45°50' E 018°51'0 0.0
2018-Feb-05 17:20N 45°50' E 018°51'1 1.7
2018-Feb-05 16:55N 45°51' E 018°52'0 0.0
2018-Feb-05 15:01N 45°51' E 018°52'0 0.0
2018-Feb-05 14:55N 45°51' E 018°52'0 0.0
2018-Feb-05 13:41N 45°51' E 018°52'0 0.1
2018-Feb-05 13:30N 45°51' E 018°52'2 4.4
2018-Feb-05 13:00N 45°53' E 018°50'10 2.5
2018-Feb-05 09:01N 46°01' E 018°41'2 5.3
2018-Feb-05 08:43N 46°02' E 018°42'4 8.4
2018-Feb-05 08:12N 46°05' E 018°46'  
Track history (hours):
 
Tides and Currents Weather Stations Pressure Air Temp Water Temp Dewpoint Dewpoint Depression Visibility Wind Speed Wind Dir Waves Ship Positions

Sv.ap.joan

Last reported at 2018-Feb-14 14:49 UTC. Time now 2018-Feb-20 12:10 UTC.
Position N 44°30' E 022°12'.

Length 80 m; draft 2.4 m.

Type: Cargo ship. MMSI: 207072225.

Date/timePositionNaut miles runAvg speedWind from/ knotsBaromVisibWave heightAir tempDewpointWater temp
2018-Feb-14 14:49N 44°30' E 022°12'2 8.2
2018-Feb-14 14:30N 44°28' E 022°09'4 7.8
2018-Feb-14 14:00N 44°31' E 022°05'4 8.0
2018-Feb-14 13:30N 44°34' E 022°02'15 7.4
2018-Feb-14 11:30N 44°40' E 021°42'4 7.8
2018-Feb-14 10:58N 44°43' E 021°38'3 7.0
2018-Feb-14 10:31N 44°45' E 021°35'3 6.7
2018-Feb-14 10:00N 44°46' E 021°31'0 0.0
2018-Feb-14 06:31N 44°46' E 021°31'0 0.2
2018-Feb-14 06:26N 44°46' E 021°31'2 5.2
2018-Feb-14 06:00N 44°47' E 021°28'11 0.8
2018-Feb-13 16:35N 44°47' E 021°13'1 8.3
2018-Feb-13 16:30N 44°46' E 021°12'4 8.0
2018-Feb-13 16:00N 44°44' E 021°08'4 8.0
2018-Feb-13 15:30N 44°43' E 021°02'3 6.8
2018-Feb-13 15:00N 44°42' E 020°58'3 5.7
2018-Feb-13 14:30N 44°40' E 020°55'0 0.0
2018-Feb-13 14:00N 44°40' E 020°55'0 0.0
2018-Feb-13 13:27N 44°40' E 020°55'0 0.0
2018-Feb-13 13:00N 44°40' E 020°55'0 0.0
2018-Feb-13 12:27N 44°40' E 020°55'0 0.0
2018-Feb-13 12:00N 44°40' E 020°55'0 0.0
2018-Feb-13 11:27N 44°40' E 020°55'0 0.0
2018-Feb-13 00:33N 44°40' E 020°55'0 0.1
2018-Feb-13 00:30N 44°40' E 020°55'0 0.0
2018-Feb-13 00:00N 44°40' E 020°55'0 0.0
2018-Feb-12 23:30N 44°40' E 020°55'0 0.0
2018-Feb-12 22:39N 44°40' E 020°55'0 0.0
2018-Feb-12 22:27N 44°40' E 020°55'0 0.0
2018-Feb-12 21:57N 44°40' E 020°55'0 0.0
2018-Feb-12 21:30N 44°40' E 020°55'0 0.0
2018-Feb-12 21:00N 44°40' E 020°55'0 0.0
2018-Feb-12 20:30N 44°40' E 020°55'0 0.0
2018-Feb-12 20:00N 44°40' E 020°55'0 0.0
2018-Feb-12 19:30N 44°40' E 020°55'0 0.0
2018-Feb-12 19:00N 44°40' E 020°55'0 0.0
2018-Feb-12 18:30N 44°40' E 020°55'0 0.0
2018-Feb-12 18:00N 44°40' E 020°55'0 0.0
2018-Feb-12 17:30N 44°40' E 020°55'0 0.0
2018-Feb-12 17:00N 44°40' E 020°55'0 0.0
2018-Feb-12 16:30N 44°40' E 020°55'0 0.0
2018-Feb-12 16:00N 44°40' E 020°55'1 1.4
2018-Feb-12 15:30N 44°40' E 020°54'0 0.6
2018-Feb-12 14:57N 44°40' E 020°54'0 0.0
2018-Feb-12 14:27N 44°40' E 020°54'0 0.0
2018-Feb-12 13:57N 44°40' E 020°54'0 0.0
2018-Feb-12 13:30N 44°40' E 020°54'0 0.0
2018-Feb-12 13:00N 44°40' E 020°54'0 0.0
2018-Feb-12 12:30N 44°40' E 020°54'0 0.0
2018-Feb-12 12:00N 44°40' E 020°54'0 0.0
2018-Feb-12 11:30N 44°40' E 020°54'0 0.0
2018-Feb-12 11:00N 44°40' E 020°54'0 0.0
2018-Feb-12 10:30N 44°40' E 020°54'0 0.0
2018-Feb-12 06:54N 44°40' E 020°54'1 0.2
2018-Feb-12 01:08N 44°40' E 020°55'0 0.0
2018-Feb-12 00:59N 44°40' E 020°55'0 0.0
2018-Feb-12 00:29N 44°40' E 020°55'0 0.0
2018-Feb-11 23:59N 44°40' E 020°55'0 0.0
2018-Feb-11 23:29N 44°40' E 020°55'0 0.0
2018-Feb-11 22:56N 44°40' E 020°55'0 0.0
2018-Feb-11 22:26N 44°40' E 020°55'0 0.0
2018-Feb-11 21:59N 44°40' E 020°55'0 0.0
2018-Feb-11 21:29N 44°40' E 020°55'0 0.0
2018-Feb-11 20:59N 44°40' E 020°55'0 0.0
2018-Feb-11 20:29N 44°40' E 020°55'0 0.0
2018-Feb-11 19:59N 44°40' E 020°55'0 0.0
2018-Feb-11 19:29N 44°40' E 020°55'0 0.0
2018-Feb-11 18:59N 44°40' E 020°55'0 0.0
2018-Feb-11 18:29N 44°40' E 020°55'0 0.0
2018-Feb-11 17:59N 44°40' E 020°55'0 0.0
2018-Feb-11 17:26N 44°40' E 020°55'0 0.0
2018-Feb-11 16:59N 44°40' E 020°55'0 0.0
2018-Feb-11 16:29N 44°40' E 020°55'0 0.0
2018-Feb-11 15:56N 44°40' E 020°55'0 0.0
2018-Feb-11 15:29N 44°40' E 020°55'0 0.0
2018-Feb-11 14:59N 44°40' E 020°55'0 0.0
2018-Feb-11 00:05N 44°40' E 020°55'0 0.0
2018-Feb-10 23:56N 44°40' E 020°55'0 0.0
2018-Feb-10 23:26N 44°40' E 020°55'0 0.0
2018-Feb-10 22:59N 44°40' E 020°55'0 0.0
2018-Feb-10 22:29N 44°40' E 020°55'0 0.0
2018-Feb-10 21:59N 44°40' E 020°55'0 0.0
2018-Feb-10 21:26N 44°40' E 020°55'0 0.0
2018-Feb-10 20:59N 44°40' E 020°55'0 0.0
2018-Feb-10 20:29N 44°40' E 020°55'0 0.0
2018-Feb-10 19:59N 44°40' E 020°55'0 0.0
2018-Feb-10 19:29N 44°40' E 020°55'0 0.0
2018-Feb-10 18:59N 44°40' E 020°55'0 0.0
2018-Feb-10 18:29N 44°40' E 020°55'0 0.0
2018-Feb-10 17:59N 44°40' E 020°55'0 0.0
2018-Feb-10 17:29N 44°40' E 020°55'0 0.0
2018-Feb-10 16:59N 44°40' E 020°55'0 0.0
2018-Feb-10 16:29N 44°40' E 020°55'0 0.0
2018-Feb-10 15:59N 44°40' E 020°55'0 0.0
2018-Feb-10 15:29N 44°40' E 020°55'0 0.0
2018-Feb-10 14:59N 44°40' E 020°55'0 0.3
2018-Feb-10 14:30N 44°40' E 020°55'3 6.1
2018-Feb-10 14:00N 44°40' E 020°51'4 7.9
2018-Feb-10 13:30N 44°40' E 020°45'4 7.6
2018-Feb-10 13:00N 44°43' E 020°42'4 7.6
2018-Feb-10 12:30N 44°45' E 020°38'4 7.3
2018-Feb-10 12:00N 44°49' E 020°39'3 6.4
2018-Feb-10 11:30N 44°51' E 020°36'4 7.4
2018-Feb-10 11:00N 44°50' E 020°31'4 7.4
2018-Feb-10 10:30N 44°51' E 020°26'4 7.4
2018-Feb-10 10:00N 44°53' E 020°21'4 7.4
2018-Feb-10 09:30N 44°56' E 020°19'4 7.1
2018-Feb-10 09:00N 44°59' E 020°18'4 7.1
2018-Feb-10 08:30N 45°02' E 020°22'4 7.6
2018-Feb-10 07:58N 45°05' E 020°19'4 7.7
2018-Feb-10 07:29N 45°08' E 020°16'4 7.3
2018-Feb-10 06:59N 45°11' E 020°12'3 7.0
2018-Feb-10 06:30N 45°10' E 020°07'4 7.5
2018-Feb-10 06:00N 45°10' E 020°02'  
2018-Feb-06 15:57N 45°14' E 019°46'4 7.6
2018-Feb-06 15:24N 45°13' E 019°40'9 6.4
2018-Feb-06 13:58N 45°14' E 019°27'4 7.9
2018-Feb-06 13:30N 45°14' E 019°22'5 7.6
2018-Feb-06 12:54N 45°15' E 019°16'3 8.0
2018-Feb-06 12:30N 45°16' E 019°12'4 7.7
2018-Feb-06 11:59N 45°18' E 019°07'3 6.7
2018-Feb-06 11:30N 45°21' E 019°05'4 7.3
2018-Feb-06 11:00N 45°22' E 018°60'2 4.5
2018-Feb-06 10:29N 45°24' E 019°01'2 4.9
2018-Feb-06 10:00N 45°26' E 018°60'3 7.0
2018-Feb-06 09:30N 45°30' E 019°00'3 6.9
2018-Feb-06 09:00N 45°29' E 019°05'3 5.5
2018-Feb-06 08:30N 45°32' E 019°04'3 5.4
2018-Feb-06 08:00N 45°33' E 019°00'3 6.5
2018-Feb-06 07:30N 45°33' E 018°56'3 5.5
2018-Feb-06 07:00N 45°35' E 018°54'4 7.3
2018-Feb-06 06:30N 45°39' E 018°57'3 5.1
2018-Feb-06 06:00N 45°41' E 018°56'4 7.3
2018-Feb-06 05:30N 45°45' E 018°54'3 6.9
2018-Feb-06 05:00N 45°48' E 018°51'3 3.2
2018-Feb-06 04:14N 45°50' E 018°51'0 0.0
2018-Feb-06 02:56N 45°50' E 018°51'0 0.0
2018-Feb-06 02:26N 45°50' E 018°51'0 0.0
2018-Feb-06 01:44N 45°50' E 018°51'0 0.0
2018-Feb-06 01:26N 45°50' E 018°51'0 0.0
2018-Feb-06 00:56N 45°50' E 018°51'0 0.0
2018-Feb-05 23:32N 45°50' E 018°51'0 0.0
2018-Feb-05 23:26N 45°50' E 018°51'0 0.0
2018-Feb-05 22:38N 45°50' E 018°51'0 0.0
2018-Feb-05 22:26N 45°50' E 018°51'0 0.0
2018-Feb-05 21:56N 45°50' E 018°51'0 0.0
2018-Feb-05 21:26N 45°50' E 018°51'0 0.0
2018-Feb-05 20:02N 45°50' E 018°51'0 0.0
2018-Feb-05 19:44N 45°50' E 018°51'0 0.0
2018-Feb-05 19:26N 45°50' E 018°51'0 0.0
2018-Feb-05 18:38N 45°50' E 018°51'0 0.0
2018-Feb-05 18:20N 45°50' E 018°51'0 0.0
2018-Feb-05 17:56N 45°50' E 018°51'0 0.0
2018-Feb-05 17:20N 45°50' E 018°51'1 1.7
2018-Feb-05 16:55N 45°51' E 018°52'0 0.0
2018-Feb-05 15:01N 45°51' E 018°52'0 0.0
2018-Feb-05 14:55N 45°51' E 018°52'0 0.0
2018-Feb-05 13:41N 45°51' E 018°52'0 0.1
2018-Feb-05 13:30N 45°51' E 018°52'2 4.4
2018-Feb-05 13:00N 45°53' E 018°50'10 2.5
2018-Feb-05 09:01N 46°01' E 018°41'2 5.3
2018-Feb-05 08:43N 46°02' E 018°42'4 8.4
2018-Feb-05 08:12N 46°05' E 018°46'  

Dump ship's entire track history